createdAt,value
2019-02-19T00:00:28.947Z,142327.92
2019-02-19T00:05:24.853Z,142350.11
2019-02-19T00:10:20.748Z,142382.77
2019-02-19T00:15:17.370Z,142373.44
2019-02-19T00:20:13.362Z,142415.48
2019-02-19T00:25:09.270Z,142430.67
2019-02-19T00:30:05.954Z,142414.30
2019-02-19T00:35:01.956Z,142402.66
2019-02-19T00:39:57.839Z,142381.63
2019-02-19T00:45:00.354Z,142424.83
2019-02-19T00:49:56.268Z,142432.97
2019-02-19T00:54:52.174Z,142436.47
2019-02-19T00:59:48.100Z,142445.81
2019-02-19T01:04:43.976Z,142438.81
2019-02-19T01:09:39.902Z,142427.17
2019-02-19T01:14:35.808Z,142418.98
2019-02-19T01:19:35.496Z,142441.17
2019-02-19T01:24:31.403Z,142434.17
2019-02-19T01:29:27.291Z,142441.17
2019-02-19T01:34:23.176Z,142461.00
2019-02-19T01:39:19.185Z,142483.19
2019-02-19T01:44:15.068Z,142483.19
2019-02-19T01:49:10.965Z,142477.39
2019-02-19T01:54:06.882Z,142506.58
2019-02-19T01:59:02.781Z,142431.83
2019-02-19T02:03:58.683Z,142406.16
2019-02-19T02:08:54.589Z,142423.64
2019-02-19T02:13:50.529Z,142424.83
2019-02-19T02:18:46.482Z,142406.16
2019-02-19T02:23:42.390Z,142408.50
2019-02-19T02:28:38.401Z,142389.81
2019-02-19T02:33:34.315Z,142395.61
2019-02-19T02:38:30.204Z,142401.45
2019-02-19T02:43:26.096Z,142378.13
2019-02-19T02:48:21.979Z,142383.97
2019-02-19T02:53:17.865Z,142376.92
2019-02-19T02:58:13.761Z,142401.45
2019-02-19T03:03:09.620Z,142387.47
2019-02-19T03:08:05.874Z,142418.98
2019-02-19T03:13:01.761Z,142448.16
2019-02-19T03:17:57.666Z,142443.52
2019-02-19T03:22:53.582Z,142532.27
2019-02-19T03:27:49.469Z,142623.39
2019-02-19T03:32:45.386Z,142684.19
2019-02-19T03:37:41.260Z,142746.20
2019-02-19T03:42:37.254Z,142810.48
2019-02-19T03:47:33.150Z,143099.50
2019-02-19T03:52:29.039Z,143184.94
2019-02-19T03:57:24.926Z,143245.81
2019-02-19T04:02:20.813Z,143277.44
2019-02-19T04:07:16.791Z,143300.94
2019-02-19T04:12:12.680Z,143309.16
2019-02-19T04:17:08.564Z,143318.53
2019-02-19T04:22:04.525Z,143323.19
2019-02-19T04:27:00.431Z,143311.47
2019-02-19T04:31:56.312Z,143316.17
2019-02-19T04:36:52.210Z,143320.84
2019-02-19T04:41:48.096Z,143306.80
2019-02-19T04:46:44.001Z,143300.94
2019-02-19T04:51:39.886Z,143289.17
2019-02-19T04:56:35.877Z,143273.94
2019-02-19T05:01:31.777Z,143252.88
2019-02-19T05:06:27.677Z,143236.45
2019-02-19T05:11:23.569Z,143215.41
2019-02-19T05:16:19.454Z,143220.06
2019-02-19T05:21:15.465Z,143175.58
2019-02-19T05:26:11.446Z,143142.78
2019-02-19T05:31:07.430Z,143132.25
2019-02-19T05:36:03.341Z,143117.03
2019-02-19T05:40:59.226Z,143131.09
2019-02-19T05:45:55.849Z,143136.95
2019-02-19T05:50:51.698Z,143114.67
2019-02-19T05:55:47.669Z,143142.78
2019-02-19T06:00:43.561Z,143121.73
2019-02-19T06:05:39.443Z,143145.12
2019-02-19T06:10:35.327Z,143121.73
2019-02-19T06:15:31.946Z,143125.23
2019-02-19T06:20:27.820Z,143117.03
2019-02-19T06:25:23.702Z,143121.73
2019-02-19T06:30:19.625Z,143135.77
2019-02-19T06:35:15.531Z,143117.03
2019-02-19T06:40:23.160Z,143126.39
2019-02-19T06:45:19.948Z,143138.11
2019-02-19T06:50:15.806Z,143143.97
2019-02-19T06:55:11.686Z,143154.50
2019-02-19T07:00:10.387Z,143150.98
2019-02-19T07:05:08.070Z,143147.47
2019-02-19T07:10:05.159Z,143159.19
2019-02-19T07:15:04.992Z,143152.14
2019-02-19T07:20:00.945Z,143170.88
2019-02-19T07:24:56.915Z,143182.59
2019-02-19T07:29:52.794Z,143175.58
2019-02-19T07:34:48.678Z,143170.88
2019-02-19T07:39:44.561Z,143168.56
2019-02-19T07:44:41.940Z,143182.59
2019-02-19T07:49:38.038Z,143183.75
2019-02-19T07:54:33.930Z,143191.97
2019-02-19T07:59:29.813Z,143197.81
2019-02-19T08:04:25.688Z,143210.70
2019-02-19T08:09:21.578Z,143229.44
2019-02-19T08:14:17.463Z,143247.03
2019-02-19T08:19:13.350Z,143224.78
2019-02-19T08:24:09.256Z,143225.94
2019-02-19T08:29:13.545Z,143224.78
2019-02-19T08:34:02.996Z,143222.42
2019-02-19T08:38:58.879Z,143217.72
2019-02-19T08:43:54.754Z,143214.20
2019-02-19T08:48:55.936Z,143223.58
2019-02-19T08:53:56.577Z,143227.08
2019-02-19T08:58:53.871Z,143241.16
2019-02-19T09:03:55.001Z,143237.66
2019-02-19T09:08:51.832Z,143225.94
2019-02-19T09:13:48.965Z,143220.06
2019-02-19T09:18:46.290Z,143231.80
2019-02-19T09:23:44.681Z,143249.33
2019-02-19T09:28:43.571Z,143269.27
2019-02-19T09:33:40.374Z,143302.09
2019-02-19T09:38:37.605Z,143309.16
2019-02-19T09:43:35.748Z,143348.95
2019-02-19T09:48:31.596Z,143372.41
2019-02-19T09:53:27.620Z,143367.70
2019-02-19T09:58:23.752Z,143363.03
2019-02-19T10:03:19.632Z,143353.66
2019-02-19T10:08:15.520Z,143341.94
2019-02-19T10:13:11.401Z,143409.91
2019-02-19T10:18:10.317Z,143415.78
2019-02-19T10:23:05.362Z,143384.09
2019-02-19T10:28:01.405Z,143358.33
2019-02-19T10:32:57.295Z,143402.84
2019-02-19T10:37:55.484Z,143439.19
2019-02-19T10:42:51.491Z,143442.70
2019-02-19T10:47:48.054Z,143496.61
2019-02-19T10:52:44.255Z,143518.88
2019-02-19T10:57:40.113Z,143528.25
2019-02-19T11:02:36.001Z,143496.61
2019-02-19T11:07:33.128Z,143495.45
2019-02-19T11:12:30.365Z,143482.56
2019-02-19T11:17:29.003Z,143529.45
2019-02-19T11:22:26.009Z,143501.33
2019-02-19T11:27:21.991Z,143529.45
2019-02-19T11:32:17.880Z,143558.75
2019-02-19T11:37:13.765Z,143544.70
2019-02-19T11:42:09.649Z,143578.72
2019-02-19T11:47:05.531Z,143646.70
2019-02-19T11:52:01.419Z,143665.47
2019-02-19T11:56:57.302Z,143679.56
2019-02-19T12:01:53.284Z,143719.41
2019-02-19T12:06:49.163Z,143758.20
2019-02-19T12:11:45.047Z,143829.80
2019-02-19T12:16:40.927Z,143846.22
2019-02-19T12:21:36.850Z,143846.22
2019-02-19T12:26:32.828Z,143872.03
2019-02-19T12:31:28.711Z,143800.44
2019-02-19T12:36:25.124Z,143785.16
2019-02-19T12:41:23.104Z,143820.41
2019-02-19T12:46:19.272Z,143782.84
2019-02-19T12:51:15.311Z,143728.80
2019-02-19T12:56:11.199Z,143688.95
2019-02-19T13:01:07.191Z,143695.97
2019-02-19T13:06:03.075Z,143752.34
2019-02-19T13:10:59.061Z,143712.39
2019-02-19T13:15:55.920Z,143732.41
2019-02-19T13:20:51.800Z,143764.08
2019-02-19T13:25:47.693Z,143766.39
2019-02-19T13:30:43.595Z,143779.34
2019-02-19T13:35:39.484Z,143742.95
2019-02-19T13:40:35.383Z,143719.41
2019-02-19T13:45:31.946Z,143721.77
2019-02-19T13:50:29.791Z,143703.00
2019-02-19T13:55:27.584Z,143680.72
2019-02-19T14:00:25.395Z,143704.20
2019-02-19T14:05:21.284Z,143683.08
2019-02-19T14:10:17.175Z,143710.03
2019-02-19T14:15:20.087Z,143739.44
2019-02-19T14:20:20.872Z,143717.11
2019-02-19T14:25:30.775Z,143711.23
2019-02-19T14:30:47.517Z,143717.11
2019-02-19T14:35:54.818Z,143712.39
2019-02-19T14:46:18.714Z,143700.64
2019-02-19T14:51:23.567Z,143688.95
2019-02-19T14:56:31.457Z,143691.25
2019-02-19T15:01:33.283Z,143695.97
2019-02-19T15:06:49.574Z,143693.62
2019-02-19T15:12:04.946Z,143699.48
2019-02-19T15:17:19.971Z,143683.08
2019-02-19T15:22:30.955Z,143678.36
2019-02-19T15:27:47.744Z,143680.72
2019-02-19T15:32:58.437Z,143680.72
2019-02-19T15:37:56.770Z,143667.83
2019-02-19T15:42:58.348Z,143670.19
2019-02-19T15:47:59.506Z,143670.19
2019-02-19T15:52:57.400Z,143665.47
2019-02-19T15:58:04.568Z,143656.08
2019-02-19T16:03:03.712Z,143654.92
2019-02-19T16:13:33.421Z,143644.34
2019-02-19T16:18:31.459Z,143642.03
2019-02-19T16:23:46.229Z,143639.67
2019-02-19T16:28:44.125Z,143645.55
2019-02-19T16:33:50.863Z,143630.28
2019-02-19T16:39:00.932Z,143643.19
2019-02-19T16:49:17.780Z,143616.25
2019-02-19T16:54:16.224Z,143618.55
2019-02-19T16:59:14.121Z,143610.38
2019-02-19T17:04:12.979Z,143616.25
2019-02-19T17:09:20.143Z,143602.16
2019-02-19T17:14:33.338Z,143609.17
2019-02-19T17:19:45.358Z,143588.09
2019-02-19T17:24:48.987Z,143588.09
2019-02-19T17:29:46.879Z,143592.77
2019-02-19T17:35:01.324Z,143581.03
2019-02-19T17:40:02.162Z,143576.36
2019-02-19T17:45:12.458Z,143559.95
2019-02-19T17:55:17.150Z,143552.89
2019-02-19T18:00:14.948Z,143543.50
2019-02-19T18:05:15.614Z,143541.19
2019-02-19T18:10:13.603Z,143531.81
2019-02-19T18:15:18.284Z,143536.48
2019-02-19T18:20:14.265Z,143534.13
2019-02-19T18:25:10.153Z,143531.81
2019-02-19T18:30:08.206Z,143531.81
2019-02-19T18:35:09.624Z,143524.75
2019-02-19T18:40:23.005Z,143513.06
2019-02-19T18:45:24.302Z,143495.45
2019-02-19T18:50:26.215Z,143473.19
2019-02-19T18:55:23.170Z,143477.86
2019-02-19T19:00:19.068Z,143480.22
2019-02-19T19:05:15.045Z,143482.56
2019-02-19T19:10:11.228Z,143482.56
2019-02-19T19:15:08.693Z,143482.56
2019-02-19T19:20:07.961Z,143475.55
2019-02-19T19:25:04.961Z,143461.45
2019-02-19T19:30:01.764Z,143421.59
2019-02-19T19:34:57.779Z,143413.42
2019-02-19T19:39:53.717Z,143393.47
2019-02-19T19:44:49.667Z,143364.19
2019-02-19T19:49:45.582Z,143330.22
2019-02-19T19:54:41.486Z,143323.19
2019-02-19T19:59:37.468Z,143289.17
2019-02-19T20:04:33.352Z,143262.25
2019-02-19T20:09:29.338Z,143237.66
2019-02-19T20:14:25.261Z,143201.33
2019-02-19T20:19:21.145Z,143173.22
2019-02-19T20:24:17.165Z,143156.84
2019-02-19T20:29:13.068Z,143140.47
2019-02-19T20:34:08.998Z,143110.02
2019-02-19T20:39:04.942Z,143094.78
2019-02-19T20:44:00.826Z,143063.19
2019-02-19T20:48:56.809Z,143047.97
2019-02-19T20:53:52.696Z,143038.61
2019-02-19T20:58:48.680Z,142993.00
2019-02-19T21:03:44.565Z,143003.52
2019-02-19T21:08:40.548Z,142991.80
2019-02-19T21:13:36.435Z,142930.97
2019-02-19T21:18:32.435Z,142945.00
2019-02-19T21:23:28.332Z,142901.70
2019-02-19T21:28:25.110Z,142905.20
2019-02-19T21:33:21.013Z,142901.70
2019-02-19T21:38:16.981Z,142868.97
2019-02-19T21:43:12.872Z,142857.27
2019-02-19T21:48:08.853Z,142840.91
2019-02-19T21:53:04.731Z,142833.89
2019-02-19T21:58:00.615Z,142846.75
2019-02-19T22:02:56.513Z,142832.70
2019-02-19T22:07:52.400Z,142822.19
2019-02-19T22:12:48.285Z,142808.13
2019-02-19T22:17:44.253Z,142780.06
2019-02-19T22:22:40.167Z,142760.20
2019-02-19T22:27:36.047Z,142787.13
2019-02-19T22:32:31.956Z,142752.00
2019-02-19T22:37:27.841Z,142681.84
2019-02-19T22:42:23.723Z,142565.00
2019-02-19T22:47:19.613Z,142616.39
2019-02-19T22:52:15.501Z,142622.25
2019-02-19T22:57:11.386Z,142543.95
2019-02-19T23:02:09.276Z,142531.11
2019-02-19T23:07:05.160Z,142518.27
2019-02-19T23:12:01.294Z,142462.20
2019-02-19T23:16:57.153Z,142329.08
2019-02-19T23:21:53.646Z,142271.91
2019-02-19T23:26:49.527Z,142205.36
2019-02-19T23:31:45.418Z,142128.39
2019-02-19T23:36:46.012Z,142096.91
2019-02-19T23:41:41.908Z,142044.41
2019-02-19T23:46:37.809Z,142044.41
2019-02-19T23:51:33.692Z,142058.37
2019-02-19T23:56:29.577Z,142023.41
